createdAt,value
2023-01-02T00:00:40.684Z,10.72
2023-01-02T00:03:24.030Z,10.60
2023-01-02T00:05:51.600Z,10.51
2023-01-02T00:08:18.776Z,10.53
2023-01-02T00:10:46.203Z,10.52
2023-01-02T00:13:14.810Z,10.67
2023-01-02T00:15:42.266Z,10.72
2023-01-02T00:18:09.435Z,10.54
2023-01-02T00:20:37.163Z,10.85
2023-01-02T00:23:04.448Z,10.77
2023-01-02T00:25:34.823Z,10.55
2023-01-02T00:28:02.505Z,10.53
2023-01-02T00:30:37.599Z,10.58
2023-01-02T00:33:06.572Z,10.75
2023-01-02T00:35:34.204Z,10.72
2023-01-02T00:38:01.309Z,10.68
2023-01-02T00:40:31.363Z,10.72
2023-01-02T00:42:58.691Z,10.64
2023-01-02T00:45:26.570Z,10.60
2023-01-02T00:47:53.892Z,10.31
2023-01-02T00:50:21.486Z,10.32
2023-01-02T00:52:48.661Z,10.31
2023-01-02T00:55:17.429Z,10.28
2023-01-02T00:57:44.637Z,10.16
2023-01-02T01:00:14.825Z,10.15
2023-01-02T01:02:46.017Z,10.15
2023-01-02T01:05:13.513Z,10.12
2023-01-02T01:07:40.761Z,10.11
2023-01-02T01:10:08.388Z,10.08
2023-01-02T01:12:35.575Z,10.04
2023-01-02T01:15:03.026Z,10.12
2023-01-02T01:17:32.202Z,10.10
2023-01-02T01:19:59.736Z,10.06
2023-01-02T01:22:26.918Z,9.95
2023-01-02T01:24:54.552Z,9.99
2023-01-02T01:27:21.746Z,10.00
2023-01-02T01:29:49.298Z,10.02
2023-01-02T01:32:16.484Z,9.89
2023-01-02T01:34:43.978Z,9.95
2023-01-02T01:37:12.840Z,9.98
2023-01-02T01:39:40.309Z,10.13
2023-01-02T01:42:12.843Z,10.15
2023-01-02T01:44:56.198Z,10.11
2023-01-02T01:47:46.960Z,10.24
2023-01-02T01:50:22.121Z,10.12
2023-01-02T01:53:02.926Z,10.05
2023-01-02T01:55:35.154Z,10.15
2023-01-02T01:58:08.965Z,10.16
2023-01-02T02:00:37.470Z,10.20
2023-01-02T02:03:28.038Z,10.26
2023-01-02T02:05:58.724Z,10.29
2023-01-02T02:08:47.871Z,10.34
2023-01-02T02:11:16.351Z,10.23
2023-01-02T02:13:43.852Z,10.24
2023-01-02T02:16:17.473Z,10.22
2023-01-02T02:19:18.188Z,10.19
2023-01-02T02:22:23.904Z,10.17
2023-01-02T02:25:09.826Z,10.13
2023-01-02T02:28:07.701Z,9.91
2023-01-02T02:30:54.156Z,9.76
2023-01-02T02:33:31.405Z,9.73
2023-01-02T02:35:58.544Z,9.73
2023-01-02T02:38:48.178Z,9.50
2023-01-02T02:41:19.837Z,9.49
2023-01-02T02:44:01.775Z,9.41
2023-01-02T02:46:42.875Z,9.71
2023-01-02T02:49:28.542Z,9.55
2023-01-02T02:52:15.962Z,9.46
2023-01-02T02:54:51.271Z,9.48
2023-01-02T02:57:20.568Z,9.39
2023-01-02T02:59:48.257Z,9.30
2023-01-02T03:02:17.521Z,9.38
2023-01-02T03:04:50.023Z,9.38
2023-01-02T03:07:38.903Z,9.33
2023-01-02T03:10:38.293Z,9.27
2023-01-02T03:13:16.795Z,9.32
2023-01-02T03:15:52.236Z,9.23
2023-01-02T03:18:32.592Z,9.19
2023-01-02T03:21:08.217Z,9.20
2023-01-02T03:23:43.499Z,9.17
2023-01-02T03:26:15.249Z,9.11
2023-01-02T03:28:46.854Z,9.18
2023-01-02T03:31:19.186Z,9.20
2023-01-02T03:33:52.381Z,9.19
2023-01-02T03:36:28.117Z,9.14
2023-01-02T03:39:29.603Z,9.12
2023-01-02T03:42:02.171Z,9.09
2023-01-02T03:44:37.939Z,9.01
2023-01-02T03:47:08.451Z,8.90
2023-01-02T03:49:42.106Z,8.87
2023-01-02T03:52:10.892Z,8.77
2023-01-02T03:54:39.492Z,8.71
2023-01-02T03:57:31.650Z,8.71
2023-01-02T04:00:03.948Z,8.76
2023-01-02T04:02:53.867Z,8.73
2023-01-02T04:05:24.894Z,8.74
2023-01-02T04:08:19.386Z,8.68
2023-01-02T04:10:56.252Z,8.71
2023-01-02T04:13:52.138Z,8.65
2023-01-02T04:16:28.945Z,8.60
2023-01-02T04:19:12.952Z,8.55
2023-01-02T04:21:41.782Z,8.57
2023-01-02T04:24:16.967Z,8.65
2023-01-02T04:26:46.877Z,8.74
2023-01-02T04:29:14.503Z,8.79
2023-01-02T04:31:53.882Z,8.82
2023-01-02T04:34:23.595Z,8.81
2023-01-02T04:36:52.069Z,8.89
2023-01-02T04:39:22.605Z,8.88
2023-01-02T04:41:49.669Z,8.87
2023-01-02T04:44:18.615Z,8.95
2023-01-02T04:46:45.799Z,8.86
2023-01-02T04:49:13.269Z,8.94
2023-01-02T04:51:40.515Z,8.82
2023-01-02T04:54:11.213Z,8.72
2023-01-02T04:56:38.684Z,8.73
2023-01-02T04:59:06.065Z,8.71
2023-01-02T05:01:33.242Z,8.74
2023-01-02T05:04:01.213Z,8.69
2023-01-02T05:06:28.338Z,8.69
2023-01-02T05:08:55.910Z,8.70
2023-01-02T05:11:23.064Z,8.62
2023-01-02T05:13:50.693Z,8.55
2023-01-02T05:16:18.015Z,8.63
2023-01-02T05:18:45.517Z,8.59
2023-01-02T05:21:32.569Z,8.65
2023-01-02T05:24:02.492Z,8.51
2023-01-02T05:26:33.418Z,8.54
2023-01-02T05:29:01.721Z,8.53
2023-01-02T05:31:28.981Z,8.46
2023-01-02T05:33:58.267Z,8.56
2023-01-02T05:36:26.949Z,8.54
2023-01-02T05:38:54.703Z,8.50
2023-01-02T05:41:22.683Z,8.39
2023-01-02T05:43:54.833Z,8.33
2023-01-02T05:46:23.006Z,8.36
2023-01-02T05:48:50.475Z,8.24
2023-01-02T05:51:18.375Z,8.29
2023-01-02T05:53:46.421Z,8.26
2023-01-02T05:56:17.452Z,8.26
2023-01-02T05:58:46.744Z,8.17
2023-01-02T06:01:23.643Z,8.10
2023-01-02T06:04:12.505Z,8.14
2023-01-02T06:06:42.950Z,8.16
2023-01-02T06:09:13.568Z,8.19
2023-01-02T06:11:41.541Z,7.80
2023-01-02T06:14:10.659Z,8.26
2023-01-02T06:16:38.875Z,8.22
2023-01-02T06:19:06.926Z,8.24
2023-01-02T06:21:34.267Z,8.26
2023-01-02T06:24:01.919Z,8.33
2023-01-02T06:26:34.577Z,8.40
2023-01-02T06:29:04.102Z,8.52
2023-01-02T06:31:33.717Z,8.52
2023-01-02T06:34:02.797Z,8.61
2023-01-02T06:36:33.756Z,8.66
2023-01-02T06:39:05.204Z,8.70
2023-01-02T06:41:33.578Z,8.79
2023-01-02T06:44:07.269Z,8.87
2023-01-02T06:46:34.454Z,8.93
2023-01-02T06:49:02.144Z,9.01
2023-01-02T06:51:30.158Z,9.02
2023-01-02T06:53:59.277Z,9.10
2023-01-02T06:56:26.410Z,9.25
2023-01-02T06:58:54.089Z,9.35
2023-01-02T07:01:24.350Z,9.38
2023-01-02T07:03:52.705Z,9.46
2023-01-02T07:06:24.943Z,9.60
2023-01-02T07:08:52.380Z,9.61
2023-01-02T07:11:23.290Z,10.09
2023-01-02T07:13:53.491Z,11.86
2023-01-02T07:16:22.428Z,13.57
2023-01-02T07:18:52.960Z,14.87
2023-01-02T07:21:20.521Z,15.99
2023-01-02T07:23:49.901Z,15.58
2023-01-02T07:26:17.589Z,15.38
2023-01-02T07:28:47.797Z,15.79
2023-01-02T07:31:23.742Z,16.01
2023-01-02T07:33:57.389Z,16.04
2023-01-02T07:36:34.764Z,15.70
2023-01-02T07:39:04.857Z,15.05
2023-01-02T07:41:32.785Z,14.91
2023-01-02T07:44:01.320Z,16.02
2023-01-02T07:46:28.534Z,16.02
2023-01-02T07:48:57.346Z,16.64
2023-01-02T07:51:27.466Z,16.45
2023-01-02T07:53:56.985Z,16.56
2023-01-02T07:56:30.461Z,17.50
2023-01-02T07:59:08.644Z,18.14
2023-01-02T08:01:36.918Z,19.25
2023-01-02T08:04:06.272Z,20.42
2023-01-02T08:06:40.588Z,20.54
2023-01-02T08:09:09.303Z,21.17
2023-01-02T08:11:37.819Z,22.87
2023-01-02T08:14:08.309Z,22.66
2023-01-02T08:16:38.976Z,23.40
2023-01-02T08:19:07.508Z,24.49
2023-01-02T08:21:34.910Z,25.03
2023-01-02T08:24:02.680Z,25.81
2023-01-02T08:26:31.379Z,25.74
2023-01-02T08:29:00.025Z,25.78
2023-01-02T08:31:27.210Z,26.15
2023-01-02T08:33:54.982Z,25.78
2023-01-02T08:36:23.407Z,25.28
2023-01-02T08:38:50.951Z,25.10
2023-01-02T08:41:39.772Z,25.50
2023-01-02T08:44:12.128Z,25.58
2023-01-02T08:46:42.880Z,25.52
2023-01-02T08:49:15.809Z,25.96
2023-01-02T08:54:57.271Z,26.85
2023-01-02T08:57:31.966Z,26.51
2023-01-02T09:00:09.886Z,26.57
2023-01-02T09:02:40.035Z,26.35
2023-01-02T09:05:13.239Z,27.20
2023-01-02T09:07:45.983Z,27.77
2023-01-02T09:10:14.274Z,27.55
2023-01-02T09:12:43.979Z,27.09
2023-01-02T09:15:12.219Z,25.77
2023-01-02T09:17:40.937Z,25.57
2023-01-02T09:20:12.118Z,26.16
2023-01-02T09:22:40.875Z,26.52
2023-01-02T09:25:09.273Z,26.42
2023-01-02T09:27:39.661Z,26.23
2023-01-02T09:30:10.920Z,26.52
2023-01-02T09:32:47.194Z,27.14
2023-01-02T09:38:00.285Z,26.48
2023-01-02T09:40:32.364Z,26.20
2023-01-02T09:43:05.429Z,26.35
2023-01-02T09:45:50.564Z,26.50
2023-01-02T09:48:25.485Z,26.69
2023-01-02T09:51:14.105Z,26.61
2023-01-02T09:53:42.997Z,26.14
2023-01-02T09:56:28.802Z,25.94
2023-01-02T09:59:13.913Z,25.76
2023-01-02T10:02:23.234Z,25.69
2023-01-02T10:05:10.902Z,25.13
2023-01-02T10:08:13.589Z,24.94
2023-01-02T10:10:52.413Z,24.75
2023-01-02T10:16:32.667Z,25.52
2023-01-02T10:19:14.001Z,26.05
2023-01-02T10:21:47.960Z,26.29
2023-01-02T10:24:39.049Z,25.85
2023-01-02T10:27:20.299Z,26.66
2023-01-02T10:30:16.758Z,25.52
2023-01-02T10:32:57.416Z,26.09
2023-01-02T10:35:59.115Z,26.27
2023-01-02T10:38:41.105Z,25.39
2023-01-02T10:41:37.756Z,25.07
2023-01-02T10:44:43.671Z,23.36
2023-01-02T10:47:23.982Z,23.98
2023-01-02T10:50:02.452Z,23.92
2023-01-02T10:53:04.859Z,24.42
2023-01-02T10:55:37.822Z,23.86
2023-01-02T10:58:13.941Z,22.89
2023-01-02T11:00:45.775Z,23.59
2023-01-02T11:03:23.935Z,23.74
2023-01-02T11:06:23.625Z,23.78
2023-01-02T11:09:02.466Z,24.06
2023-01-02T11:11:31.703Z,23.83
2023-01-02T11:14:14.985Z,24.23
2023-01-02T11:17:09.701Z,24.16
2023-01-02T11:19:44.127Z,23.62
2023-01-02T11:22:17.577Z,23.35
2023-01-02T11:25:01.477Z,23.33
2023-01-02T11:31:01.632Z,22.78
2023-01-02T11:33:37.089Z,22.71
2023-01-02T11:36:45.605Z,22.23
2023-01-02T11:43:27.623Z,22.80
2023-01-02T11:46:14.270Z,22.91
2023-01-02T11:49:04.195Z,22.59
2023-01-02T11:51:58.843Z,22.05
2023-01-02T11:58:33.717Z,22.35
2023-01-02T12:01:23.835Z,22.17
2023-01-02T12:03:59.383Z,21.70
2023-01-02T12:06:44.867Z,21.53
2023-01-02T12:09:35.153Z,20.97
2023-01-02T12:12:15.114Z,21.00
2023-01-02T12:15:08.395Z,20.92
2023-01-02T12:18:41.714Z,20.77
2023-01-02T12:21:26.184Z,20.47
2023-01-02T12:24:13.085Z,20.21
2023-01-02T12:26:54.913Z,19.82
2023-01-02T12:29:46.422Z,19.64
2023-01-02T12:32:20.229Z,19.19
2023-01-02T12:34:56.709Z,18.90
2023-01-02T12:37:41.641Z,18.63
2023-01-02T12:40:45.837Z,18.74
2023-01-02T12:43:49.843Z,18.92
2023-01-02T12:46:56.780Z,18.63
2023-01-02T12:50:27.616Z,18.65
2023-01-02T12:53:20.455Z,19.01
2023-01-02T12:59:50.079Z,18.69
2023-01-02T13:02:57.505Z,18.43
2023-01-02T13:05:49.087Z,18.49
2023-01-02T13:08:47.328Z,17.97
2023-01-02T13:11:52.411Z,17.90
2023-01-02T13:14:33.772Z,17.76
2023-01-02T13:17:27.645Z,17.80
2023-01-02T13:20:10.131Z,17.75
2023-01-02T13:23:09.834Z,17.93
2023-01-02T13:25:53.927Z,18.17
2023-01-02T13:28:58.982Z,18.33
2023-01-02T13:31:53.205Z,18.43
2023-01-02T13:34:38.095Z,18.31
2023-01-02T13:37:52.349Z,18.04
2023-01-02T13:40:49.695Z,17.64
2023-01-02T13:43:30.775Z,17.35
2023-01-02T13:47:03.745Z,17.59
2023-01-02T13:49:40.329Z,17.62
2023-01-02T13:52:44.931Z,17.53
2023-01-02T13:55:36.156Z,17.45
2023-01-02T13:59:41.970Z,17.64
2023-01-02T14:02:25.118Z,17.78
2023-01-02T14:05:04.644Z,17.77
2023-01-02T14:07:58.601Z,17.98
2023-01-02T14:10:57.036Z,18.03
2023-01-02T14:13:50.860Z,17.65
2023-01-02T14:17:05.000Z,17.46
2023-01-02T14:19:38.235Z,17.30
2023-01-02T14:22:55.466Z,17.32
2023-01-02T14:25:49.068Z,17.14
2023-01-02T14:28:39.873Z,16.83
2023-01-02T14:31:24.146Z,16.68
2023-01-02T14:34:33.370Z,16.43
2023-01-02T14:38:12.054Z,16.09
2023-01-02T14:40:46.578Z,15.85
2023-01-02T14:43:49.809Z,15.53
2023-01-02T14:46:52.059Z,15.26
2023-01-02T14:53:26.614Z,14.56
2023-01-02T14:56:02.750Z,14.36
2023-01-02T14:58:41.234Z,14.09
2023-01-02T15:01:14.209Z,14.02
2023-01-02T15:04:22.673Z,13.84
2023-01-02T15:07:17.885Z,13.73
2023-01-02T15:09:52.276Z,13.60
2023-01-02T15:12:53.413Z,13.63
2023-01-02T15:15:28.847Z,13.56
2023-01-02T15:18:05.535Z,13.51
2023-01-02T15:20:54.954Z,13.50
2023-01-02T15:23:25.475Z,13.35
2023-01-02T15:26:33.405Z,13.25
2023-01-02T15:28:54.952Z,13.09
2023-01-02T15:31:22.358Z,13.07
2023-01-02T15:33:57.432Z,12.93
2023-01-02T15:36:39.758Z,12.84
2023-01-02T15:42:41.860Z,12.55
2023-01-02T15:45:17.912Z,12.58
2023-01-02T15:48:21.998Z,12.56
2023-01-02T15:50:54.106Z,12.48
2023-01-02T15:53:32.873Z,12.39
2023-01-02T15:56:07.194Z,12.31
2023-01-02T15:59:01.617Z,12.20
2023-01-02T16:01:59.072Z,12.21
2023-01-02T16:05:15.823Z,12.33
2023-01-02T16:08:01.965Z,12.36
2023-01-02T16:10:32.037Z,12.34
2023-01-02T16:13:34.787Z,12.25
2023-01-02T16:16:23.092Z,12.30
2023-01-02T16:19:04.769Z,12.16
2023-01-02T16:21:36.464Z,12.37
2023-01-02T16:24:11.130Z,12.33
2023-01-02T16:27:10.070Z,12.32
2023-01-02T16:29:46.881Z,12.33
2023-01-02T16:32:32.918Z,12.39
2023-01-02T16:35:55.224Z,12.28
2023-01-02T16:38:29.274Z,12.11
2023-01-02T16:42:12.404Z,12.18
2023-01-02T16:44:42.993Z,12.19
2023-01-02T16:47:56.204Z,12.32
2023-01-02T16:51:00.071Z,12.52
2023-01-02T16:56:26.034Z,12.43
2023-01-02T16:59:31.425Z,12.20
2023-01-02T17:02:15.531Z,12.04
2023-01-02T17:04:58.416Z,12.05
2023-01-02T17:07:36.048Z,12.23
2023-01-02T17:10:47.415Z,12.41
2023-01-02T17:13:34.979Z,12.53
2023-01-02T17:16:07.463Z,12.58
2023-01-02T17:18:35.967Z,12.65
2023-01-02T17:21:06.845Z,12.60
2023-01-02T17:23:59.917Z,12.60
2023-01-02T17:26:58.012Z,12.66
2023-01-02T17:29:28.812Z,12.48
2023-01-02T17:32:00.224Z,12.52
2023-01-02T17:34:36.880Z,12.49
2023-01-02T17:37:05.498Z,12.29
2023-01-02T17:39:35.401Z,12.31
2023-01-02T17:42:11.274Z,12.39
2023-01-02T17:44:47.358Z,12.39
2023-01-02T17:47:57.248Z,12.29
2023-01-02T17:50:21.399Z,12.39
2023-01-02T17:52:53.445Z,12.39
2023-01-02T17:55:25.321Z,12.26
2023-01-02T17:58:00.988Z,12.35
2023-01-02T18:00:36.902Z,12.32
2023-01-02T18:03:26.218Z,12.36
2023-01-02T18:05:54.190Z,12.23
2023-01-02T18:08:23.989Z,12.05
2023-01-02T18:10:53.188Z,12.03
2023-01-02T18:13:31.625Z,12.02
2023-01-02T18:16:00.005Z,12.06
2023-01-02T18:18:29.142Z,12.03
2023-01-02T18:20:57.791Z,12.03
2023-01-02T18:23:27.315Z,12.02
2023-01-02T18:25:56.897Z,12.03
2023-01-02T18:28:37.421Z,12.04
2023-01-02T18:31:17.923Z,12.08
2023-01-02T18:33:49.318Z,12.09
2023-01-02T18:36:24.913Z,12.08
2023-01-02T18:39:39.263Z,11.94
2023-01-02T18:42:18.304Z,11.87
2023-01-02T18:44:48.970Z,11.66
2023-01-02T18:47:30.035Z,11.77
2023-01-02T18:50:24.139Z,11.65
2023-01-02T18:52:52.688Z,11.67
2023-01-02T18:55:34.114Z,11.52
2023-01-02T18:58:33.648Z,11.51
2023-01-02T19:01:31.409Z,11.45
2023-01-02T19:04:28.300Z,11.31
2023-01-02T19:07:23.099Z,11.09
2023-01-02T19:09:56.874Z,11.11
2023-01-02T19:12:46.227Z,10.99
2023-01-02T19:15:42.895Z,10.97
2023-01-02T19:18:13.939Z,10.95
2023-01-02T19:20:56.832Z,10.89
2023-01-02T19:23:53.329Z,10.86
2023-01-02T19:26:38.497Z,10.85
2023-01-02T19:29:32.623Z,10.77
2023-01-02T19:32:34.000Z,10.78
2023-01-02T19:35:34.347Z,10.72
2023-01-02T19:38:19.989Z,10.73
2023-01-02T19:40:50.279Z,10.71
2023-01-02T19:43:23.884Z,10.71
2023-01-02T19:45:53.196Z,10.58
2023-01-02T19:48:26.856Z,10.51
2023-01-02T19:50:55.369Z,10.50
2023-01-02T19:53:27.948Z,10.53
2023-01-02T19:55:57.647Z,10.49
2023-01-02T19:58:36.648Z,10.55
2023-01-02T20:01:10.187Z,10.58
2023-01-02T20:03:41.213Z,10.52
2023-01-02T20:06:10.339Z,10.51
2023-01-02T20:08:44.022Z,10.57
2023-01-02T20:11:35.173Z,10.59
2023-01-02T20:14:04.580Z,10.60
2023-01-02T20:16:38.099Z,10.48
2023-01-02T20:19:07.745Z,10.52
2023-01-02T20:21:40.441Z,10.53
2023-01-02T20:24:11.781Z,10.39
2023-01-02T20:26:47.004Z,10.52
2023-01-02T20:29:17.635Z,10.47
2023-01-02T20:31:50.612Z,10.67
2023-01-02T20:34:21.874Z,10.73
2023-01-02T20:36:53.081Z,10.59
2023-01-02T20:39:21.613Z,10.59
2023-01-02T20:41:57.917Z,10.62
2023-01-02T20:44:27.430Z,10.67
2023-01-02T20:46:59.187Z,10.79
2023-01-02T20:49:29.296Z,10.75
2023-01-02T20:52:03.923Z,10.75
2023-01-02T20:54:33.266Z,10.67
2023-01-02T20:57:00.927Z,10.48
2023-01-02T20:59:28.850Z,10.50
2023-01-02T21:01:57.837Z,10.44
2023-01-02T21:04:34.454Z,10.40
2023-01-02T21:07:07.983Z,10.37
2023-01-02T21:09:36.001Z,10.32
2023-01-02T21:12:29.952Z,10.28
2023-01-02T21:15:05.204Z,10.40
2023-01-02T21:17:33.022Z,10.32
2023-01-02T21:20:00.996Z,10.24
2023-01-02T21:22:32.084Z,9.81
2023-01-02T21:25:01.311Z,10.17
2023-01-02T21:27:32.488Z,10.17
2023-01-02T21:30:08.504Z,10.18
2023-01-02T21:32:39.707Z,10.17
2023-01-02T21:35:18.211Z,10.16
2023-01-02T21:37:54.018Z,10.23
2023-01-02T21:40:22.151Z,10.14
2023-01-02T21:43:12.091Z,9.98
2023-01-02T21:45:39.289Z,10.08
2023-01-02T21:48:07.780Z,10.09
2023-01-02T21:50:39.456Z,10.09
2023-01-02T21:53:12.612Z,10.03
2023-01-02T21:55:41.829Z,10.05
2023-01-02T21:58:14.108Z,10.13
2023-01-02T22:00:47.100Z,10.14
2023-01-02T22:03:18.547Z,9.68
2023-01-02T22:05:50.665Z,10.06
2023-01-02T22:08:21.300Z,10.07
2023-01-02T22:10:50.162Z,10.05
2023-01-02T22:13:30.917Z,10.05
2023-01-02T22:15:58.846Z,10.02
2023-01-02T22:18:27.309Z,9.93
2023-01-02T22:20:54.410Z,9.89
2023-01-02T22:23:23.772Z,9.89
2023-01-02T22:25:52.572Z,9.86
2023-01-02T22:28:22.475Z,9.80
2023-01-02T22:30:51.485Z,9.76
2023-01-02T22:33:21.287Z,9.72
2023-01-02T22:35:48.512Z,9.73
2023-01-02T22:38:17.337Z,9.70
2023-01-02T22:40:46.667Z,9.63
2023-01-02T22:43:20.816Z,9.64
2023-01-02T22:45:54.486Z,9.49
2023-01-02T22:48:28.723Z,9.44
2023-01-02T22:51:02.312Z,9.30
2023-01-02T22:53:39.223Z,9.25
2023-01-02T22:56:16.088Z,9.30
2023-01-02T22:58:52.698Z,9.32
2023-01-02T23:01:36.919Z,9.22
2023-01-02T23:04:24.740Z,9.27
2023-01-02T23:09:48.156Z,9.19
2023-01-02T23:12:16.229Z,9.18
2023-01-02T23:14:43.979Z,9.20
2023-01-02T23:17:30.972Z,9.19
2023-01-02T23:19:58.768Z,9.17
2023-01-02T23:22:26.107Z,9.14
2023-01-02T23:24:54.023Z,9.18
2023-01-02T23:27:21.158Z,9.20
2023-01-02T23:29:48.697Z,9.17
2023-01-02T23:32:15.898Z,9.19
2023-01-02T23:34:43.494Z,9.18
2023-01-02T23:37:10.820Z,9.32
2023-01-02T23:39:38.322Z,9.40
2023-01-02T23:42:06.057Z,9.44
2023-01-02T23:44:33.730Z,9.40
2023-01-02T23:47:07.057Z,9.35
2023-01-02T23:49:36.858Z,9.27
2023-01-02T23:52:05.029Z,9.35
2023-01-02T23:54:32.919Z,9.38
2023-01-02T23:57:00.138Z,9.29
2023-01-02T23:59:27.711Z,9.22
